sensor_id;sensor_type;location;lat;lon;timestamp;pressure;altitude;pressure_sealevel;temperature;humidity
10310;BME280;5200;43.236;27.986;2024-02-04T00:02:00;100142.59;;;5.11;100.00
10310;BME280;5200;43.236;27.986;2024-02-04T00:04:29;100164.13;;;5.27;100.00
10310;BME280;5200;43.236;27.986;2024-02-04T00:06:57;100162.22;;;5.29;100.00
10310;BME280;5200;43.236;27.986;2024-02-04T00:09:24;100166.25;;;5.35;100.00
10310;BME280;5200;43.236;27.986;2024-02-04T00:11:53;100148.28;;;5.30;100.00
10310;BME280;5200;43.236;27.986;2024-02-04T00:14:20;100174.09;;;5.47;100.00
10310;BME280;5200;43.236;27.986;2024-02-04T00:16:47;100154.97;;;5.34;100.00
10310;BME280;5200;43.236;27.986;2024-02-04T00:19:13;100151.41;;;5.35;100.00
10310;BME280;5200;43.236;27.986;2024-02-04T00:21:43;100151.41;;;5.35;100.00
10310;BME280;5200;43.236;27.986;2024-02-04T00:24:10;100140.88;;;5.37;100.00
10310;BME280;5200;43.236;27.986;2024-02-04T00:26:36;100156.03;;;5.44;100.00
10310;BME280;5200;43.236;27.986;2024-02-04T00:29:03;100163.84;;;5.44;100.00
10310;BME280;5200;43.236;27.986;2024-02-04T00:31:30;100143.16;;;5.28;100.00
10310;BME280;5200;43.236;27.986;2024-02-04T00:33:57;100150.34;;;5.25;100.00
10310;BME280;5200;43.236;27.986;2024-02-04T00:36:24;100147.91;;;5.22;100.00
10310;BME280;5200;43.236;27.986;2024-02-04T00:38:52;100164.66;;;5.32;100.00
10310;BME280;5200;43.236;27.986;2024-02-04T00:41:19;100159.84;;;5.26;100.00
10310;BME280;5200;43.236;27.986;2024-02-04T00:43:45;100140.50;;;5.16;100.00
10310;BME280;5200;43.236;27.986;2024-02-04T00:46:12;100155.34;;;5.28;100.00
10310;BME280;5200;43.236;27.986;2024-02-04T00:48:39;100143.25;;;5.27;100.00
10310;BME280;5200;43.236;27.986;2024-02-04T00:51:08;100129.88;;;5.19;100.00
10310;BME280;5200;43.236;27.986;2024-02-04T00:53:35;100143.06;;;5.30;100.00
10310;BME280;5200;43.236;27.986;2024-02-04T00:56:04;100121.13;;;5.20;100.00
10310;BME280;5200;43.236;27.986;2024-02-04T00:58:31;100097.66;;;5.20;100.00
10310;BME280;5200;43.236;27.986;2024-02-04T01:00:58;100112.03;;;5.25;100.00
10310;BME280;5200;43.236;27.986;2024-02-04T01:03:24;100146.72;;;5.40;100.00
10310;BME280;5200;43.236;27.986;2024-02-04T01:05:51;100113.63;;;5.28;100.00
10310;BME280;5200;43.236;27.986;2024-02-04T01:08:18;100121.16;;;5.45;100.00
10310;BME280;5200;43.236;27.986;2024-02-04T01:10:45;100142.59;;;5.50;100.00
10310;BME280;5200;43.236;27.986;2024-02-04T01:13:13;100138.06;;;5.53;100.00
10310;BME280;5200;43.236;27.986;2024-02-04T01:15:40;100138.06;;;5.53;100.00
10310;BME280;5200;43.236;27.986;2024-02-04T01:18:07;100117.84;;;5.43;100.00
10310;BME280;5200;43.236;27.986;2024-02-04T01:20:34;100150.00;;;5.57;100.00
10310;BME280;5200;43.236;27.986;2024-02-04T01:23:01;100128.69;;;5.50;100.00
10310;BME280;5200;43.236;27.986;2024-02-04T01:25:28;100155.72;;;5.62;100.00
10310;BME280;5200;43.236;27.986;2024-02-04T01:27:55;100137.69;;;5.59;100.00
10310;BME280;5200;43.236;27.986;2024-02-04T01:30:23;100124.84;;;5.56;100.00
10310;BME280;5200;43.236;27.986;2024-02-04T01:32:50;100138.94;;;5.66;100.00
10310;BME280;5200;43.236;27.986;2024-02-04T01:35:16;100144.16;;;5.66;100.00
10310;BME280;5200;43.236;27.986;2024-02-04T01:37:43;100150.13;;;5.68;100.00
10310;BME280;5200;43.236;27.986;2024-02-04T01:40:13;100139.66;;;5.68;100.00
10310;BME280;5200;43.236;27.986;2024-02-04T01:42:41;100129.22;;;5.68;100.00
10310;BME280;5200;43.236;27.986;2024-02-04T01:45:09;100129.66;;;5.75;100.00
10310;BME280;5200;43.236;27.986;2024-02-04T01:47:38;100116.41;;;5.65;100.00
10310;BME280;5200;43.236;27.986;2024-02-04T01:50:06;100132.06;;;5.78;100.00
10310;BME280;5200;43.236;27.986;2024-02-04T01:52:35;100133.53;;;5.82;100.00
10310;BME280;5200;43.236;27.986;2024-02-04T01:55:05;100109.09;;;5.70;100.00
10310;BME280;5200;43.236;27.986;2024-02-04T01:57:32;100129.97;;;5.83;100.00
10310;BME280;5200;43.236;27.986;2024-02-04T02:00:00;100104.69;;;5.70;100.00
10310;BME280;5200;43.236;27.986;2024-02-04T02:02:27;100113.69;;;5.79;100.00
10310;BME280;5200;43.236;27.986;2024-02-04T02:04:56;100109.09;;;5.70;100.00
10310;BME280;5200;43.236;27.986;2024-02-04T02:07:23;100125.59;;;5.83;100.00
10310;BME280;5200;43.236;27.986;2024-02-04T02:09:52;100108.88;;;5.73;100.00
10310;BME280;5200;43.236;27.986;2024-02-04T02:12:22;100107.19;;;5.85;100.00
10310;BME280;5200;43.236;27.986;2024-02-04T02:14:58;100111.72;;;5.96;100.00
10310;BME280;5200;43.236;27.986;2024-02-04T02:17:31;100087.13;;;5.85;100.00
10310;BME280;5200;43.236;27.986;2024-02-04T02:20:06;100111.28;;;6.02;100.00
10310;BME280;5200;43.236;27.986;2024-02-04T02:22:42;100087.56;;;5.92;100.00
10310;BME280;5200;43.236;27.986;2024-02-04T02:25:14;100090.72;;;5.97;100.00
10310;BME280;5200;43.236;27.986;2024-02-04T02:27:47;100091.56;;;5.98;100.00
10310;BME280;5200;43.236;27.986;2024-02-04T02:30:15;100112.44;;;6.10;100.00
10310;BME280;5200;43.236;27.986;2024-02-04T02:32:42;100102.63;;;6.14;100.00
10310;BME280;5200;43.236;27.986;2024-02-04T02:35:09;100100.72;;;6.16;100.00
10310;BME280;5200;43.236;27.986;2024-02-04T02:37:41;100089.03;;;6.09;100.00
10310;BME280;5200;43.236;27.986;2024-02-04T02:40:15;100096.94;;;6.20;100.00
10310;BME280;5200;43.236;27.986;2024-02-04T02:42:46;100079.63;;;6.19;100.00
10310;BME280;5200;43.236;27.986;2024-02-04T02:45:15;100065.00;;;6.17;100.00
10310;BME280;5200;43.236;27.986;2024-02-04T02:47:42;100078.75;;;6.31;100.00
10310;BME280;5200;43.236;27.986;2024-02-04T02:50:11;100065.34;;;6.36;100.00
10310;BME280;5200;43.236;27.986;2024-02-04T02:52:38;100044.69;;;6.20;100.00
10310;BME280;5200;43.236;27.986;2024-02-04T02:55:05;100039.16;;;6.25;100.00
10310;BME280;5200;43.236;27.986;2024-02-04T02:57:34;100052.19;;;6.38;100.00
10310;BME280;5200;43.236;27.986;2024-02-04T03:00:01;100035.88;;;6.34;100.00
10310;BME280;5200;43.236;27.986;2024-02-04T03:02:28;100057.13;;;6.53;100.00
10310;BME280;5200;43.236;27.986;2024-02-04T03:04:55;100038.97;;;6.52;100.00
10310;BME280;5200;43.236;27.986;2024-02-04T03:07:22;100050.47;;;6.73;100.00
10310;BME280;5200;43.236;27.986;2024-02-04T03:09:49;100037.84;;;6.67;100.00
10310;BME280;5200;43.236;27.986;2024-02-04T03:12:16;100059.09;;;6.87;100.00
10310;BME280;5200;43.236;27.986;2024-02-04T03:14:44;100053.81;;;6.75;100.00
10310;BME280;5200;43.236;27.986;2024-02-04T03:17:11;100044.94;;;6.65;100.00
10310;BME280;5200;43.236;27.986;2024-02-04T03:19:38;100062.59;;;6.74;100.00
10310;BME280;5200;43.236;27.986;2024-02-04T03:22:05;100044.78;;;6.55;100.00
10310;BME280;5200;43.236;27.986;2024-02-04T03:24:32;100067.78;;;6.63;100.00
10310;BME280;5200;43.236;27.986;2024-02-04T03:26:59;100039.38;;;6.46;100.00
10310;BME280;5200;43.236;27.986;2024-02-04T03:29:26;100055.47;;;6.52;100.00
10310;BME280;5200;43.236;27.986;2024-02-04T03:31:55;100049.94;;;6.44;100.00
10310;BME280;5200;43.236;27.986;2024-02-04T03:34:22;100037.94;;;6.42;100.00
10310;BME280;5200;43.236;27.986;2024-02-04T03:36:48;100045.03;;;6.40;100.00
10310;BME280;5200;43.236;27.986;2024-02-04T03:39:15;100049.94;;;6.44;100.00
10310;BME280;5200;43.236;27.986;2024-02-04T03:41:42;100055.31;;;6.43;100.00
10310;BME280;5200;43.236;27.986;2024-02-04T03:44:09;100079.28;;;6.61;100.00
10310;BME280;5200;43.236;27.986;2024-02-04T03:46:36;100074.66;;;6.64;100.00
10310;BME280;5200;43.236;27.986;2024-02-04T03:49:07;100076.56;;;6.62;100.00
10310;BME280;5200;43.236;27.986;2024-02-04T03:51:34;100074.66;;;6.64;100.00
10310;BME280;5200;43.236;27.986;2024-02-04T03:54:02;100081.56;;;6.65;100.00
10310;BME280;5200;43.236;27.986;2024-02-04T03:56:28;100057.75;;;6.57;100.00
10310;BME280;5200;43.236;27.986;2024-02-04T03:58:55;100077.06;;;6.67;100.00
10310;BME280;5200;43.236;27.986;2024-02-04T04:01:22;100048.13;;;6.57;100.00
10310;BME280;5200;43.236;27.986;2024-02-04T04:03:49;100070.44;;;6.74;100.00
10310;BME280;5200;43.236;27.986;2024-02-04T04:06:17;100066.88;;;6.75;100.00
10310;BME280;5200;43.236;27.986;2024-02-04T04:08:44;100049.03;;;6.69;100.00
10310;BME280;5200;43.236;27.986;2024-02-04T04:11:11;100054.06;;;6.84;100.00
10310;BME280;5200;43.236;27.986;2024-02-04T04:13:38;100038.22;;;6.74;100.00
10310;BME280;5200;43.236;27.986;2024-02-04T04:16:05;100056.00;;;6.93;100.00
10310;BME280;5200;43.236;27.986;2024-02-04T04:18:32;100053.28;;;6.94;100.00
10310;BME280;5200;43.236;27.986;2024-02-04T04:20:59;100059.34;;;6.95;100.00
10310;BME280;5200;43.236;27.986;2024-02-04T04:23:27;100054.56;;;6.89;100.00
10310;BME280;5200;43.236;27.986;2024-02-04T04:25:54;100075.53;;;7.00;100.00
10310;BME280;5200;43.236;27.986;2024-02-04T04:28:21;100063.53;;;6.97;100.00
10310;BME280;5200;43.236;27.986;2024-02-04T04:30:47;100066.03;;;6.99;100.00
10310;BME280;5200;43.236;27.986;2024-02-04T04:33:14;100046.28;;;6.95;100.00
10310;BME280;5200;43.236;27.986;2024-02-04T04:35:41;100035.31;;;6.90;100.00
10310;BME280;5200;43.236;27.986;2024-02-04T04:38:08;100066.41;;;7.06;100.00
10310;BME280;5200;43.236;27.986;2024-02-04T04:40:36;100037.13;;;6.89;100.00
10310;BME280;5200;43.236;27.986;2024-02-04T04:43:03;100069.13;;;7.04;100.00
10310;BME280;5200;43.236;27.986;2024-02-04T04:45:30;100065.91;;;7.01;100.00
10310;BME280;5200;43.236;27.986;2024-02-04T04:47:57;100051.06;;;7.01;100.00
10310;BME280;5200;43.236;27.986;2024-02-04T04:50:24;100049.63;;;6.97;100.00
10310;BME280;5200;43.236;27.986;2024-02-04T04:52:50;100059.84;;;7.00;100.00
10310;BME280;5200;43.236;27.986;2024-02-04T04:55:18;100062.84;;;7.07;100.00
10310;BME280;5200;43.236;27.986;2024-02-04T04:57:46;100046.03;;;6.98;100.00
10310;BME280;5200;43.236;27.986;2024-02-04T05:00:15;100059.78;;;7.13;100.00
10310;BME280;5200;43.236;27.986;2024-02-04T05:02:42;100065.59;;;7.16;100.00
10310;BME280;5200;43.236;27.986;2024-02-04T05:05:10;100034.91;;;7.07;100.00
10310;BME280;5200;43.236;27.986;2024-02-04T05:07:37;100068.00;;;7.19;100.00
10310;BME280;5200;43.236;27.986;2024-02-04T05:10:05;100067.28;;;7.17;100.00
10310;BME280;5200;43.236;27.986;2024-02-04T05:12:32;100056.59;;;7.20;100.00
10310;BME280;5200;43.236;27.986;2024-02-04T05:15:01;100046.69;;;7.13;100.00
10310;BME280;5200;43.236;27.986;2024-02-04T05:17:28;100047.28;;;7.16;100.00
10310;BME280;5200;43.236;27.986;2024-02-04T05:19:54;100059.44;;;7.17;100.00
10310;BME280;5200;43.236;27.986;2024-02-04T05:22:21;100054.41;;;7.14;100.00
10310;BME280;5200;43.236;27.986;2024-02-04T05:24:48;100078.09;;;7.24;100.00
10310;BME280;5200;43.236;27.986;2024-02-04T05:27:15;100067.41;;;7.16;100.00
10310;BME280;5200;43.236;27.986;2024-02-04T05:29:42;100064.16;;;7.12;100.00
10310;BME280;5200;43.236;27.986;2024-02-04T05:32:10;100062.50;;;7.11;100.00
10310;BME280;5200;43.236;27.986;2024-02-04T05:34:37;100074.81;;;7.22;100.00
10310;BME280;5200;43.236;27.986;2024-02-04T05:37:04;100053.44;;;7.04;100.00
10310;BME280;5200;43.236;27.986;2024-02-04T05:39:31;100073.75;;;7.25;100.00
10310;BME280;5200;43.236;27.986;2024-02-04T05:41:57;100043.13;;;7.14;100.00
10310;BME280;5200;43.236;27.986;2024-02-04T05:44:24;100037.31;;;7.22;100.00
10310;BME280;5200;43.236;27.986;2024-02-04T05:46:51;100055.66;;;7.33;100.00
10310;BME280;5200;43.236;27.986;2024-02-04T05:49:19;100060.66;;;7.36;100.00
10310;BME280;5200;43.236;27.986;2024-02-04T05:51:46;100071.03;;;7.37;100.00
10310;BME280;5200;43.236;27.986;2024-02-04T05:54:13;100062.09;;;7.40;100.00
10310;BME280;5200;43.236;27.986;2024-02-04T05:56:40;100049.72;;;7.42;100.00
10310;BME280;5200;43.236;27.986;2024-02-04T05:59:06;100064.41;;;7.56;100.00
10310;BME280;5200;43.236;27.986;2024-02-04T06:01:33;100069.63;;;7.56;100.00
10310;BME280;5200;43.236;27.986;2024-02-04T06:04:00;100053.09;;;7.55;100.00
10310;BME280;5200;43.236;27.986;2024-02-04T06:06:29;100063.34;;;7.70;100.00
10310;BME280;5200;43.236;27.986;2024-02-04T06:08:55;100076.44;;;7.70;100.00
10310;BME280;5200;43.236;27.986;2024-02-04T06:11:23;100071.22;;;7.81;100.00
10310;BME280;5200;43.236;27.986;2024-02-04T06:13:51;100083.09;;;7.85;100.00
10310;BME280;5200;43.236;27.986;2024-02-04T06:16:17;100082.88;;;7.88;100.00
10310;BME280;5200;43.236;27.986;2024-02-04T06:18:44;100082.19;;;7.97;100.00
10310;BME280;5200;43.236;27.986;2024-02-04T06:21:11;100081.09;;;8.00;100.00
10310;BME280;5200;43.236;27.986;2024-02-04T06:23:39;100062.25;;;7.95;100.00
10310;BME280;5200;43.236;27.986;2024-02-04T06:26:06;100080.50;;;8.08;100.00
10310;BME280;5200;43.236;27.986;2024-02-04T06:28:33;100067.03;;;8.01;100.00
10310;BME280;5200;43.236;27.986;2024-02-04T06:31:00;100089.91;;;8.10;100.00
10310;BME280;5200;43.236;27.986;2024-02-04T06:33:27;100091.69;;;8.10;100.00
10310;BME280;5200;43.236;27.986;2024-02-04T06:35:54;100074.53;;;8.05;100.00
10310;BME280;5200;43.236;27.986;2024-02-04T06:38:21;100098.94;;;8.17;100.00
10310;BME280;5200;43.236;27.986;2024-02-04T06:40:49;100084.31;;;8.15;100.00
10310;BME280;5200;43.236;27.986;2024-02-04T06:43:16;100074.78;;;8.14;100.00
10310;BME280;5200;43.236;27.986;2024-02-04T06:45:43;100087.41;;;8.20;100.00
10310;BME280;5200;43.236;27.986;2024-02-04T06:48:11;100097.16;;;8.29;100.00
10310;BME280;5200;43.236;27.986;2024-02-04T06:50:38;100079.53;;;8.20;100.00
10310;BME280;5200;43.236;27.986;2024-02-04T06:53:04;100076.66;;;8.23;100.00
10310;BME280;5200;43.236;27.986;2024-02-04T06:55:31;100077.28;;;8.26;100.00
10310;BME280;5200;43.236;27.986;2024-02-04T06:57:59;100070.13;;;8.29;100.00
10310;BME280;5200;43.236;27.986;2024-02-04T07:00:26;100062.81;;;8.32;100.00
10310;BME280;5200;43.236;27.986;2024-02-04T07:02:53;100070.47;;;8.35;100.00
10310;BME280;5200;43.236;27.986;2024-02-04T07:05:20;100090.59;;;8.46;100.00
10310;BME280;5200;43.236;27.986;2024-02-04T07:07:48;100084.44;;;8.47;100.00
10310;BME280;5200;43.236;27.986;2024-02-04T07:10:15;100067.00;;;8.46;100.00
10310;BME280;5200;43.236;27.986;2024-02-04T07:12:42;100078.19;;;8.59;100.00
10310;BME280;5200;43.236;27.986;2024-02-04T07:15:11;100054.97;;;8.55;100.00
10310;BME280;5200;43.236;27.986;2024-02-04T07:17:38;100076.38;;;8.71;100.00
10310;BME280;5200;43.236;27.986;2024-02-04T07:20:05;100071.28;;;8.91;100.00
10310;BME280;5200;43.236;27.986;2024-02-04T07:22:32;100059.03;;;9.12;100.00
10310;BME280;5200;43.236;27.986;2024-02-04T07:25:01;100055.91;;;9.39;100.00
10310;BME280;5200;43.236;27.986;2024-02-04T07:27:29;100061.34;;;9.78;100.00
10310;BME280;5200;43.236;27.986;2024-02-04T07:29:56;100052.56;;;9.89;100.00
10310;BME280;5200;43.236;27.986;2024-02-04T07:32:24;100048.34;;;10.07;100.00
10310;BME280;5200;43.236;27.986;2024-02-04T07:34:51;100065.16;;;10.26;100.00
10310;BME280;5200;43.236;27.986;2024-02-04T07:37:18;100054.38;;;10.29;100.00
10310;BME280;5200;43.236;27.986;2024-02-04T07:39:45;100048.03;;;10.41;99.20
10310;BME280;5200;43.236;27.986;2024-02-04T07:42:12;100067.44;;;10.40;98.50
10310;BME280;5200;43.236;27.986;2024-02-04T07:44:39;100051.22;;;10.35;98.14
10310;BME280;5200;43.236;27.986;2024-02-04T07:47:06;100034.78;;;10.43;98.05
10310;BME280;5200;43.236;27.986;2024-02-04T07:49:34;100041.56;;;10.65;95.64
10310;BME280;5200;43.236;27.986;2024-02-04T07:52:01;100032.44;;;10.49;95.36
10310;BME280;5200;43.236;27.986;2024-02-04T07:54:28;100033.06;;;10.32;96.22
10310;BME280;5200;43.236;27.986;2024-02-04T07:56:55;100029.16;;;10.16;97.22
10310;BME280;5200;43.236;27.986;2024-02-04T07:59:22;100024.34;;;9.91;98.78
10310;BME280;5200;43.236;27.986;2024-02-04T08:01:49;100058.97;;;9.96;99.21
10310;BME280;5200;43.236;27.986;2024-02-04T08:04:16;100075.50;;;9.87;99.80
10310;BME280;5200;43.236;27.986;2024-02-04T08:06:44;100060.09;;;9.72;100.00
10310;BME280;5200;43.236;27.986;2024-02-04T08:09:11;100070.34;;;9.76;100.00
10310;BME280;5200;43.236;27.986;2024-02-04T08:11:38;100074.88;;;9.73;100.00
10310;BME280;5200;43.236;27.986;2024-02-04T08:14:05;100080.69;;;9.67;100.00
10310;BME280;5200;43.236;27.986;2024-02-04T08:16:32;100085.63;;;9.61;100.00
10310;BME280;5200;43.236;27.986;2024-02-04T08:18:58;100085.06;;;9.57;100.00
10310;BME280;5200;43.236;27.986;2024-02-04T08:21:25;100088.34;;;9.59;100.00
10310;BME280;5200;43.236;27.986;2024-02-04T08:23:54;100088.34;;;9.59;100.00
10310;BME280;5200;43.236;27.986;2024-02-04T08:26:20;100084.78;;;9.60;100.00
10310;BME280;5200;43.236;27.986;2024-02-04T08:28:47;100051.28;;;9.52;100.00
10310;BME280;5200;43.236;27.986;2024-02-04T08:31:14;100077.63;;;9.62;100.00
10310;BME280;5200;43.236;27.986;2024-02-04T08:33:41;100082.66;;;9.75;100.00
10310;BME280;5200;43.236;27.986;2024-02-04T08:36:08;100082.38;;;9.78;100.00
10310;BME280;5200;43.236;27.986;2024-02-04T08:38:36;100086.81;;;9.78;100.00
10310;BME280;5200;43.236;27.986;2024-02-04T08:41:04;100082.44;;;9.88;100.00
10310;BME280;5200;43.236;27.986;2024-02-04T08:43:31;100077.28;;;10.07;100.00
10310;BME280;5200;43.236;27.986;2024-02-04T08:45:58;100075.78;;;10.14;100.00
10310;BME280;5200;43.236;27.986;2024-02-04T08:48:25;100051.78;;;10.39;100.00
10310;BME280;5200;43.236;27.986;2024-02-04T08:50:51;100072.31;;;10.64;97.36
10310;BME280;5200;43.236;27.986;2024-02-04T08:53:19;100049.03;;;10.50;96.50
10310;BME280;5200;43.236;27.986;2024-02-04T08:55:46;100052.50;;;10.50;96.04
10310;BME280;5200;43.236;27.986;2024-02-04T08:58:15;100068.03;;;10.63;96.48
10310;BME280;5200;43.236;27.986;2024-02-04T09:00:41;100047.53;;;10.57;96.20
10310;BME280;5200;43.236;27.986;2024-02-04T09:03:08;100070.09;;;10.69;96.77
10310;BME280;5200;43.236;27.986;2024-02-04T09:05:35;100068.34;;;10.89;95.71
10310;BME280;5200;43.236;27.986;2024-02-04T09:08:02;100061.25;;;10.99;94.49
10310;BME280;5200;43.236;27.986;2024-02-04T09:10:29;100040.47;;;10.96;93.37
10310;BME280;5200;43.236;27.986;2024-02-04T09:12:56;100054.44;;;11.16;91.29
10310;BME280;5200;43.236;27.986;2024-02-04T09:15:24;100064.72;;;11.10;90.61
10310;BME280;5200;43.236;27.986;2024-02-04T09:17:51;100058.34;;;11.12;89.73
10310;BME280;5200;43.236;27.986;2024-02-04T09:20:18;100071.94;;;11.08;90.35
10310;BME280;5200;43.236;27.986;2024-02-04T09:22:45;100070.25;;;11.07;90.71
10310;BME280;5200;43.236;27.986;2024-02-04T09:25:11;100043.81;;;10.98;91.00
10310;BME280;5200;43.236;27.986;2024-02-04T09:27:38;100044.50;;;11.10;90.28
10310;BME280;5200;43.236;27.986;2024-02-04T09:30:06;100031.59;;;11.07;88.76
10310;BME280;5200;43.236;27.986;2024-02-04T09:32:34;100046.72;;;11.15;88.48
10310;BME280;5200;43.236;27.986;2024-02-04T09:35:01;100036.03;;;11.16;88.56
10310;BME280;5200;43.236;27.986;2024-02-04T09:37:28;100044.75;;;11.17;87.70
10310;BME280;5200;43.236;27.986;2024-02-04T09:39:55;100017.31;;;11.00;87.83
10310;BME280;5200;43.236;27.986;2024-02-04T09:42:22;100031.16;;;11.12;88.12
10310;BME280;5200;43.236;27.986;2024-02-04T09:44:50;100028.97;;;11.07;89.50
10310;BME280;5200;43.236;27.986;2024-02-04T09:47:17;100026.31;;;11.17;89.75
10310;BME280;5200;43.236;27.986;2024-02-04T09:49:46;100029.81;;;11.17;90.42
10310;BME280;5200;43.236;27.986;2024-02-04T09:52:13;100013.00;;;11.18;90.51
10310;BME280;5200;43.236;27.986;2024-02-04T09:54:45;100025.00;;;11.40;89.14
10310;BME280;5200;43.236;27.986;2024-02-04T09:57:13;100019.13;;;11.66;87.79
10310;BME280;5200;43.236;27.986;2024-02-04T09:59:40;100008.78;;;11.82;87.22
10310;BME280;5200;43.236;27.986;2024-02-04T10:02:09;99997.34;;;12.01;85.48
10310;BME280;5200;43.236;27.986;2024-02-04T10:04:36;100014.38;;;12.35;82.44
10310;BME280;5200;43.236;27.986;2024-02-04T10:07:04;99982.56;;;12.36;80.82
10310;BME280;5200;43.236;27.986;2024-02-04T10:09:32;99979.41;;;12.51;79.18
10310;BME280;5200;43.236;27.986;2024-02-04T10:11:59;99988.53;;;12.74;79.13
10310;BME280;5200;43.236;27.986;2024-02-04T10:14:26;99986.59;;;13.02;76.08
10310;BME280;5200;43.236;27.986;2024-02-04T10:16:53;99967.44;;;13.00;73.72
10310;BME280;5200;43.236;27.986;2024-02-04T10:19:20;99995.63;;;13.18;72.84
10310;BME280;5200;43.236;27.986;2024-02-04T10:21:57;99997.88;;;13.30;71.97
10310;BME280;5200;43.236;27.986;2024-02-04T10:24:26;99983.31;;;13.26;71.83
10310;BME280;5200;43.236;27.986;2024-02-04T10:26:54;100002.81;;;13.51;71.10
10310;BME280;5200;43.236;27.986;2024-02-04T10:29:21;99988.91;;;13.49;69.87
10310;BME280;5200;43.236;27.986;2024-02-04T10:31:48;100007.22;;;13.69;70.15
10310;BME280;5200;43.236;27.986;2024-02-04T10:34:15;100007.94;;;13.87;67.78
10310;BME280;5200;43.236;27.986;2024-02-04T10:36:42;100019.22;;;13.98;67.44
10310;BME280;5200;43.236;27.986;2024-02-04T10:39:09;100008.94;;;13.94;66.57
10310;BME280;5200;43.236;27.986;2024-02-04T10:41:41;100019.72;;;13.93;66.26
10310;BME280;5200;43.236;27.986;2024-02-04T10:44:11;100000.31;;;13.76;66.73
10310;BME280;5200;43.236;27.986;2024-02-04T10:46:40;99978.41;;;13.66;67.42
10310;BME280;5200;43.236;27.986;2024-02-04T10:49:11;99997.09;;;13.64;67.95
10310;BME280;5200;43.236;27.986;2024-02-04T10:51:41;99983.28;;;13.44;68.33
10310;BME280;5200;43.236;27.986;2024-02-04T10:54:08;99995.66;;;13.44;68.53
10310;BME280;5200;43.236;27.986;2024-02-04T10:56:42;99998.16;;;13.45;69.85
10310;BME280;5200;43.236;27.986;2024-02-04T10:59:10;99991.94;;;13.55;69.09
10310;BME280;5200;43.236;27.986;2024-02-04T11:01:38;99993.72;;;13.54;69.02
10310;BME280;5200;43.236;27.986;2024-02-04T11:04:06;99978.66;;;13.46;68.62
10310;BME280;5200;43.236;27.986;2024-02-04T11:06:35;99996.91;;;13.58;68.57
10310;BME280;5200;43.236;27.986;2024-02-04T11:09:04;100002.66;;;13.53;68.43
10310;BME280;5200;43.236;27.986;2024-02-04T11:11:32;99991.53;;;13.41;68.96
10310;BME280;5200;43.236;27.986;2024-02-04T11:14:04;99966.03;;;13.32;69.06
10310;BME280;5200;43.236;27.986;2024-02-04T11:16:46;99967.19;;;13.29;68.43
10310;BME280;5200;43.236;27.986;2024-02-04T11:19:25;99979.91;;;13.34;67.75
10310;BME280;5200;43.236;27.986;2024-02-04T11:22:14;99978.41;;;13.31;67.09
10310;BME280;5200;43.236;27.986;2024-02-04T11:27:39;99972.44;;;13.03;64.26
10310;BME280;5200;43.236;27.986;2024-02-04T11:30:09;99992.72;;;13.03;65.56
10310;BME280;5200;43.236;27.986;2024-02-04T11:32:36;99993.47;;;12.95;64.83
10310;BME280;5200;43.236;27.986;2024-02-04T11:35:03;99974.88;;;12.79;64.65
10310;BME280;5200;43.236;27.986;2024-02-04T11:37:33;99973.81;;;12.72;65.30
10310;BME280;5200;43.236;27.986;2024-02-04T11:40:00;99983.91;;;12.76;66.13
10310;BME280;5200;43.236;27.986;2024-02-04T11:42:31;99974.03;;;12.60;65.48
10310;BME280;5200;43.236;27.986;2024-02-04T11:45:11;99981.97;;;12.60;66.42
10310;BME280;5200;43.236;27.986;2024-02-04T11:47:39;99998.84;;;12.67;68.14
10310;BME280;5200;43.236;27.986;2024-02-04T11:50:07;99997.19;;;12.66;67.78
10310;BME280;5200;43.236;27.986;2024-02-04T11:52:34;99974.44;;;12.65;67.59
10310;BME280;5200;43.236;27.986;2024-02-04T11:55:01;99975.84;;;12.60;67.78
10310;BME280;5200;43.236;27.986;2024-02-04T11:57:29;99980.91;;;12.53;68.16
10310;BME280;5200;43.236;27.986;2024-02-04T11:59:57;99989.88;;;12.60;68.53
10310;BME280;5200;43.236;27.986;2024-02-04T12:02:27;99972.63;;;12.48;69.27
10310;BME280;5200;43.236;27.986;2024-02-04T12:04:54;99999.78;;;12.58;70.12
10310;BME280;5200;43.236;27.986;2024-02-04T12:07:21;99996.97;;;12.60;70.22
10310;BME280;5200;43.236;27.986;2024-02-04T12:09:49;99984.91;;;12.57;70.42
10310;BME280;5200;43.236;27.986;2024-02-04T12:12:16;99980.25;;;12.51;70.37
10310;BME280;5200;43.236;27.986;2024-02-04T12:14:45;100002.78;;;12.63;70.52
10310;BME280;5200;43.236;27.986;2024-02-04T12:17:12;99983.31;;;12.64;70.18
10310;BME280;5200;43.236;27.986;2024-02-04T12:19:41;99988.78;;;12.63;70.44
10310;BME280;5200;43.236;27.986;2024-02-04T12:22:08;99986.19;;;12.53;71.34
10310;BME280;5200;43.236;27.986;2024-02-04T12:24:35;99962.06;;;12.48;71.71
10310;BME280;5200;43.236;27.986;2024-02-04T12:27:03;99982.94;;;12.59;71.83
10310;BME280;5200;43.236;27.986;2024-02-04T12:29:31;99973.91;;;12.62;71.86
10310;BME280;5200;43.236;27.986;2024-02-04T12:31:58;99960.03;;;12.60;69.48
10310;BME280;5200;43.236;27.986;2024-02-04T12:34:25;99954.06;;;12.58;69.16
10310;BME280;5200;43.236;27.986;2024-02-04T12:36:59;99948.63;;;12.59;69.05
10310;BME280;5200;43.236;27.986;2024-02-04T12:39:26;99954.91;;;12.58;69.31
10310;BME280;5200;43.236;27.986;2024-02-04T12:41:53;99964.47;;;12.59;69.26
10310;BME280;5200;43.236;27.986;2024-02-04T12:44:20;99944.94;;;12.34;69.90
10310;BME280;5200;43.236;27.986;2024-02-04T12:46:50;99946.38;;;12.29;70.45
10310;BME280;5200;43.236;27.986;2024-02-04T12:49:19;99943.13;;;12.17;70.58
10310;BME280;5200;43.236;27.986;2024-02-04T12:51:47;99964.25;;;12.17;71.04
10310;BME280;5200;43.236;27.986;2024-02-04T12:54:15;99938.50;;;12.01;72.51
10310;BME280;5200;43.236;27.986;2024-02-04T12:56:44;99957.06;;;12.09;73.63
10310;BME280;5200;43.236;27.986;2024-02-04T12:59:11;99941.91;;;11.93;74.23